Inuvik Mike Zubko Airport
CYEV : now visible

Airfield :











YOU CAN JOIN US ON...

 
LOGIN :

Register | Disclaimer

   EN    FR    IT 

 









Legend :    VFR   Marginal VFR   IFR   Intensive IFR   Very Intensive IFR
Visi :
Ceiling :
>= 8 km
>= 3000ft
5 to 8 km
1000 to 3000 ft
1500m to 5 km
500 to 1000 ft
800 to 1500m
200 to 500 ft
< 800m
< 200 ft
Symbols :   Thunderstorms  Fog  Heavy snow  Heavy precipitations  Wind > 20 kt






- Airport Elevation : 224 ft
- IATA code : YEV


CYEV - Inuvik Mike Zubko

CURRENT METAR :
  • 140600Z 32004KT 280V350 10SM -SN BKN013 OVC030 M21/M23 A3048 RMK ST5SC3 SLP334

EXPIRED METARs :
  • 140500Z 30004KT 6SM -SN BKN014 OVC028 M21/M24 A3049 RMK ST5SC3 SLP335
  • 140400Z 33005KT 8SM -SN BKN013 OVC030 M21/M24 A3050 RMK ST6SC2 SLP339

TAF TAF CYEV
Valid from the 14 at 01:00 until the 14 at 13:00 UTC


140038Z 1401/1413 32005KT P6SM SCT020 BKN050
TEMPO 1401/1413 5SM -SN BKN020 RMK NXT FCST BY 140700Z



MET'MAP, your aeronautical weather chart ! - Copyright ORBIFLY December 2007 - Disclaimer

ORBIFLY MET'MAP TEAM :

Programming & Development : Alexandra Zaïnal
Concept & Development : Baudouin d'Aumeries
Co-Development & Prog : Marc-Olivier Méhu
Technical & hardware support : Manuel Goepfert

Contact : metmap@orbifly.com




SOURCES & CREDITS :

   NOAA       Earth
Advisory